sensor_id;sensor_type;location;lat;lon;timestamp;P1;durP1;ratioP1;P2;durP2;ratioP2
40629;SDS011;26329;40.388;-3.710;2022-10-16T00:03:10;17.58;;;6.32;;
40629;SDS011;26329;40.388;-3.710;2022-10-16T00:13:13;13.35;;;4.20;;
40629;SDS011;26329;40.388;-3.710;2022-10-16T00:23:15;26.80;;;5.53;;
40629;SDS011;26329;40.388;-3.710;2022-10-16T00:33:16;9.85;;;3.97;;
40629;SDS011;26329;40.388;-3.710;2022-10-16T00:43:38;16.25;;;4.47;;
40629;SDS011;26329;40.388;-3.710;2022-10-16T00:53:41;9.27;;;4.07;;
40629;SDS011;26329;40.388;-3.710;2022-10-16T01:03:43;10.10;;;3.33;;
40629;SDS011;26329;40.388;-3.710;2022-10-16T01:13:46;7.17;;;3.33;;
40629;SDS011;26329;40.388;-3.710;2022-10-16T01:24:03;3.17;;;2.83;;
40629;SDS011;26329;40.388;-3.710;2022-10-16T01:34:13;9.25;;;2.40;;
40629;SDS011;26329;40.388;-3.710;2022-10-16T01:44:25;12.45;;;3.78;;
40629;SDS011;26329;40.388;-3.710;2022-10-16T01:54:32;10.40;;;2.42;;
40629;SDS011;26329;40.388;-3.710;2022-10-16T02:05:10;4.78;;;2.20;;
40629;SDS011;26329;40.388;-3.710;2022-10-16T02:15:24;5.10;;;3.00;;
40629;SDS011;26329;40.388;-3.710;2022-10-16T02:25:35;4.55;;;2.30;;
40629;SDS011;26329;40.388;-3.710;2022-10-16T02:35:41;5.15;;;2.85;;
40629;SDS011;26329;40.388;-3.710;2022-10-16T02:45:53;8.00;;;2.80;;
40629;SDS011;26329;40.388;-3.710;2022-10-16T02:55:59;6.50;;;3.40;;
40629;SDS011;26329;40.388;-3.710;2022-10-16T03:06:03;8.90;;;3.33;;
40629;SDS011;26329;40.388;-3.710;2022-10-16T03:16:10;9.13;;;3.45;;
40629;SDS011;26329;40.388;-3.710;2022-10-16T03:26:16;8.68;;;3.50;;
40629;SDS011;26329;40.388;-3.710;2022-10-16T03:36:19;13.13;;;3.30;;
40629;SDS011;26329;40.388;-3.710;2022-10-16T03:46:23;4.57;;;2.85;;
40629;SDS011;26329;40.388;-3.710;2022-10-16T03:56:29;6.00;;;2.60;;
40629;SDS011;26329;40.388;-3.710;2022-10-16T04:06:33;4.93;;;2.30;;
40629;SDS011;26329;40.388;-3.710;2022-10-16T04:16:35;4.30;;;3.03;;
40629;SDS011;26329;40.388;-3.710;2022-10-16T04:26:40;6.30;;;2.80;;
40629;SDS011;26329;40.388;-3.710;2022-10-16T04:46:50;3.83;;;2.33;;
40629;SDS011;26329;40.388;-3.710;2022-10-16T04:56:53;5.07;;;2.40;;
40629;SDS011;26329;40.388;-3.710;2022-10-16T05:06:56;3.28;;;2.30;;
40629;SDS011;26329;40.388;-3.710;2022-10-16T05:16:59;7.82;;;2.60;;
40629;SDS011;26329;40.388;-3.710;2022-10-16T05:27:04;4.30;;;3.20;;
40629;SDS011;26329;40.388;-3.710;2022-10-16T05:37:08;4.95;;;3.28;;
40629;SDS011;26329;40.388;-3.710;2022-10-16T05:47:11;7.28;;;3.45;;
40629;SDS011;26329;40.388;-3.710;2022-10-16T05:57:16;9.45;;;3.60;;
40629;SDS011;26329;40.388;-3.710;2022-10-16T06:07:18;3.90;;;2.47;;
40629;SDS011;26329;40.388;-3.710;2022-10-16T06:17:21;8.40;;;2.67;;
40629;SDS011;26329;40.388;-3.710;2022-10-16T06:27:23;8.77;;;3.53;;
40629;SDS011;26329;40.388;-3.710;2022-10-16T06:37:26;7.03;;;3.00;;
40629;SDS011;26329;40.388;-3.710;2022-10-16T06:47:29;3.65;;;3.28;;
40629;SDS011;26329;40.388;-3.710;2022-10-16T06:57:31;7.15;;;2.97;;
40629;SDS011;26329;40.388;-3.710;2022-10-16T07:07:33;6.70;;;3.53;;
40629;SDS011;26329;40.388;-3.710;2022-10-16T07:17:35;5.43;;;3.20;;
40629;SDS011;26329;40.388;-3.710;2022-10-16T07:27:37;5.40;;;4.28;;
40629;SDS011;26329;40.388;-3.710;2022-10-16T07:37:39;6.30;;;3.55;;
40629;SDS011;26329;40.388;-3.710;2022-10-16T07:47:46;4.55;;;4.10;;
40629;SDS011;26329;40.388;-3.710;2022-10-16T07:57:47;27.80;;;6.50;;
40629;SDS011;26329;40.388;-3.710;2022-10-16T08:07:51;13.02;;;4.90;;
40629;SDS011;26329;40.388;-3.710;2022-10-16T08:18:03;14.45;;;7.35;;
40629;SDS011;26329;40.388;-3.710;2022-10-16T08:28:07;16.60;;;5.03;;
40629;SDS011;26329;40.388;-3.710;2022-10-16T08:38:10;11.55;;;5.65;;
40629;SDS011;26329;40.388;-3.710;2022-10-16T08:58:36;7.97;;;6.28;;
40629;SDS011;26329;40.388;-3.710;2022-10-16T09:19:06;14.85;;;7.90;;
40629;SDS011;26329;40.388;-3.710;2022-10-16T09:29:38;14.17;;;6.87;;
40629;SDS011;26329;40.388;-3.710;2022-10-16T09:39:44;17.95;;;7.10;;
40629;SDS011;26329;40.388;-3.710;2022-10-16T09:49:56;15.45;;;6.88;;
40629;SDS011;26329;40.388;-3.710;2022-10-16T10:00:08;23.25;;;5.50;;
40629;SDS011;26329;40.388;-3.710;2022-10-16T10:10:20;8.73;;;3.10;;
40629;SDS011;26329;40.388;-3.710;2022-10-16T10:20:28;10.90;;;2.47;;
40629;SDS011;26329;40.388;-3.710;2022-10-16T10:41:13;14.20;;;3.50;;
40629;SDS011;26329;40.388;-3.710;2022-10-16T11:12:31;11.02;;;5.10;;
40629;SDS011;26329;40.388;-3.710;2022-10-16T11:22:45;15.02;;;2.67;;
40629;SDS011;26329;40.388;-3.710;2022-10-16T11:33:59;8.20;;;1.98;;
40629;SDS011;26329;40.388;-3.710;2022-10-16T11:43:38;12.32;;;2.67;;
40629;SDS011;26329;40.388;-3.710;2022-10-16T12:03:50;12.65;;;2.42;;
40629;SDS011;26329;40.388;-3.710;2022-10-16T12:24:31;9.57;;;2.20;;
40629;SDS011;26329;40.388;-3.710;2022-10-16T12:34:38;10.65;;;1.80;;
40629;SDS011;26329;40.388;-3.710;2022-10-16T12:44:44;11.00;;;2.63;;
40629;SDS011;26329;40.388;-3.710;2022-10-16T12:54:47;8.10;;;3.70;;
40629;SDS011;26329;40.388;-3.710;2022-10-16T13:35:54;9.77;;;1.95;;
40629;SDS011;26329;40.388;-3.710;2022-10-16T13:46:20;9.90;;;1.42;;
40629;SDS011;26329;40.388;-3.710;2022-10-16T13:56:22;7.20;;;1.80;;
40629;SDS011;26329;40.388;-3.710;2022-10-16T14:06:28;13.10;;;2.15;;
40629;SDS011;26329;40.388;-3.710;2022-10-16T14:16:30;14.40;;;6.05;;
40629;SDS011;26329;40.388;-3.710;2022-10-16T14:26:40;21.40;;;6.13;;
40629;SDS011;26329;40.388;-3.710;2022-10-16T14:36:45;7.97;;;1.63;;
40629;SDS011;26329;40.388;-3.710;2022-10-16T14:46:47;8.50;;;1.92;;
40629;SDS011;26329;40.388;-3.710;2022-10-16T14:56:57;9.32;;;1.05;;
40629;SDS011;26329;40.388;-3.710;2022-10-16T15:06:59;10.55;;;1.17;;
40629;SDS011;26329;40.388;-3.710;2022-10-16T15:17:00;10.73;;;1.80;;
40629;SDS011;26329;40.388;-3.710;2022-10-16T15:27:02;8.52;;;1.10;;
40629;SDS011;26329;40.388;-3.710;2022-10-16T15:37:04;10.25;;;1.80;;
40629;SDS011;26329;40.388;-3.710;2022-10-16T15:47:05;9.80;;;1.63;;
40629;SDS011;26329;40.388;-3.710;2022-10-16T15:57:08;9.73;;;2.55;;
40629;SDS011;26329;40.388;-3.710;2022-10-16T16:17:12;13.10;;;2.07;;
40629;SDS011;26329;40.388;-3.710;2022-10-16T16:27:13;7.80;;;1.83;;
40629;SDS011;26329;40.388;-3.710;2022-10-16T16:47:17;15.93;;;3.65;;
40629;SDS011;26329;40.388;-3.710;2022-10-16T16:57:19;14.60;;;1.80;;
40629;SDS011;26329;40.388;-3.710;2022-10-16T17:07:21;11.57;;;2.55;;
40629;SDS011;26329;40.388;-3.710;2022-10-16T17:17:24;13.30;;;2.58;;
40629;SDS011;26329;40.388;-3.710;2022-10-16T17:27:30;15.98;;;2.17;;
40629;SDS011;26329;40.388;-3.710;2022-10-16T17:37:34;11.20;;;3.20;;
40629;SDS011;26329;40.388;-3.710;2022-10-16T17:47:36;19.67;;;5.55;;
40629;SDS011;26329;40.388;-3.710;2022-10-16T18:07:39;20.77;;;6.30;;
40629;SDS011;26329;40.388;-3.710;2022-10-16T18:17:44;16.60;;;5.38;;
40629;SDS011;26329;40.388;-3.710;2022-10-16T18:27:48;23.55;;;7.90;;
40629;SDS011;26329;40.388;-3.710;2022-10-16T18:37:50;29.98;;;8.40;;
40629;SDS011;26329;40.388;-3.710;2022-10-16T18:47:56;28.17;;;11.15;;
40629;SDS011;26329;40.388;-3.710;2022-10-16T18:57:58;31.40;;;9.07;;
40629;SDS011;26329;40.388;-3.710;2022-10-16T19:07:59;26.20;;;7.50;;
40629;SDS011;26329;40.388;-3.710;2022-10-16T19:18:00;19.77;;;4.80;;
40629;SDS011;26329;40.388;-3.710;2022-10-16T19:28:02;24.90;;;6.70;;
40629;SDS011;26329;40.388;-3.710;2022-10-16T19:38:07;13.65;;;3.90;;
40629;SDS011;26329;40.388;-3.710;2022-10-16T19:48:09;14.20;;;3.47;;
40629;SDS011;26329;40.388;-3.710;2022-10-16T19:58:13;10.75;;;2.80;;
40629;SDS011;26329;40.388;-3.710;2022-10-16T20:08:15;9.97;;;3.87;;
40629;SDS011;26329;40.388;-3.710;2022-10-16T20:18:16;13.47;;;4.63;;
40629;SDS011;26329;40.388;-3.710;2022-10-16T20:28:19;24.47;;;5.77;;
40629;SDS011;26329;40.388;-3.710;2022-10-16T20:38:21;14.45;;;5.35;;
40629;SDS011;26329;40.388;-3.710;2022-10-16T20:48:23;14.80;;;4.53;;
40629;SDS011;26329;40.388;-3.710;2022-10-16T20:58:24;13.10;;;3.97;;
40629;SDS011;26329;40.388;-3.710;2022-10-16T21:08:26;15.67;;;3.43;;
40629;SDS011;26329;40.388;-3.710;2022-10-16T21:18:28;10.17;;;2.57;;
40629;SDS011;26329;40.388;-3.710;2022-10-16T21:28:30;15.10;;;2.30;;
40629;SDS011;26329;40.388;-3.710;2022-10-16T21:38:32;14.00;;;2.42;;
40629;SDS011;26329;40.388;-3.710;2022-10-16T21:48:34;13.27;;;2.63;;
40629;SDS011;26329;40.388;-3.710;2022-10-16T21:58:36;9.57;;;3.13;;
40629;SDS011;26329;40.388;-3.710;2022-10-16T22:08:38;11.93;;;3.17;;
40629;SDS011;26329;40.388;-3.710;2022-10-16T22:18:41;10.55;;;2.55;;
40629;SDS011;26329;40.388;-3.710;2022-10-16T22:28:44;9.68;;;2.70;;
40629;SDS011;26329;40.388;-3.710;2022-10-16T22:38:45;7.67;;;2.47;;
40629;SDS011;26329;40.388;-3.710;2022-10-16T22:48:47;11.77;;;3.07;;
40629;SDS011;26329;40.388;-3.710;2022-10-16T22:58:49;13.40;;;4.47;;
40629;SDS011;26329;40.388;-3.710;2022-10-16T23:08:51;13.97;;;5.23;;
40629;SDS011;26329;40.388;-3.710;2022-10-16T23:18:54;12.73;;;4.40;;
40629;SDS011;26329;40.388;-3.710;2022-10-16T23:28:56;18.57;;;5.03;;
40629;SDS011;26329;40.388;-3.710;2022-10-16T23:38:58;9.55;;;3.95;;
40629;SDS011;26329;40.388;-3.710;2022-10-16T23:49:00;13.00;;;4.23;;
40629;SDS011;26329;40.388;-3.710;2022-10-16T23:59:02;7.17;;;2.90;;
